Time;durP1;ratioP1;P1;durP2;ratioP2;P2;SDS_P1;SDS_P2;PMS_P1;PMS_P2;Temp;Humidity;BMP_temperature;BMP_pressure;BME280_temperature;BME280_humidity;BME280_pressure;Samples;Min_cycle;Max_cycle;Signal;HPM_P1;HPM_P2
2020/12/13 00:00:26;;;;;;;72.73;42.23;;;;;;;;;;4901768;29;20196;-64
2020/12/13 00:02:52;;;;;;;66.30;42.67;;;;;;;;;;4907428;29;20221;-63
2020/12/13 00:05:18;;;;;;;72.20;42.70;;;;;;;;;;4906615;29;20729;-63
2020/12/13 00:07:43;;;;;;;68.43;41.80;;;;;;;;;;4901808;29;20220;-64
2020/12/13 00:10:09;;;;;;;68.90;41.57;;;;;;;;;;4898963;29;20236;-63
2020/12/13 00:12:35;;;;;;;67.17;41.57;;;;;;;;;;4907584;29;20205;-63
2020/12/13 00:15:01;;;;;;;73.00;43.23;;;;;;;;;;4921999;29;20192;-65
2020/12/13 00:17:26;;;;;;;71.60;41.97;;;;;;;;;;4907412;29;20210;-63
2020/12/13 00:19:52;;;;;;;71.07;43.27;;;;;;;;;;4906841;29;20703;-63
2020/12/13 00:22:17;;;;;;;66.40;42.43;;;;;;;;;;4907142;29;20223;-63
2020/12/13 00:24:42;;;;;;;67.80;42.67;;;;;;;;;;4907716;29;20298;-64
2020/12/13 00:27:07;;;;;;;70.80;43.23;;;;;;;;;;4905287;29;20241;-63
2020/12/13 00:29:33;;;;;;;72.70;42.73;;;;;;;;;;4907839;29;20252;-63
2020/12/13 00:31:58;;;;;;;74.13;42.73;;;;;;;;;;4907317;29;20223;-64
2020/12/13 00:34:23;;;;;;;69.00;42.63;;;;;;;;;;4907470;29;20210;-63
2020/12/13 00:36:52;;;;;;;75.07;43.93;;;;;;;;;;4906498;29;20217;-64
2020/12/13 00:39:17;;;;;;;77.20;44.10;;;;;;;;;;4906396;29;21027;-63
2020/12/13 00:41:48;;;;;;;75.63;44.07;;;;;;;;;;4907189;29;20220;-63
2020/12/13 00:44:13;;;;;;;70.60;43.70;;;;;;;;;;4906769;29;20959;-63
2020/12/13 00:46:39;;;;;;;76.80;44.70;;;;;;;;;;4904800;29;20218;-63
2020/12/13 00:49:04;;;;;;;79.17;44.40;;;;;;;;;;4921054;29;20201;-63
2020/12/13 00:51:29;;;;;;;73.00;43.73;;;;;;;;;;4907136;29;20189;-63
2020/12/13 00:53:56;;;;;;;72.77;43.27;;;;;;;;;;4920460;29;20567;-62
2020/12/13 00:56:21;;;;;;;69.90;42.87;;;;;;;;;;4919888;29;20222;-63
2020/12/13 00:58:47;;;;;;;78.43;45.43;;;;;;;;;;4918982;29;20197;-63
2020/12/13 01:01:12;;;;;;;75.87;43.53;;;;;;;;;;4893209;29;20197;-63
2020/12/13 01:03:38;;;;;;;77.17;43.50;;;;;;;;;;4906060;29;20219;-64
2020/12/13 01:06:03;;;;;;;76.53;43.53;;;;;;;;;;4919181;29;20238;-63
2020/12/13 01:08:29;;;;;;;70.53;42.83;;;;;;;;;;4905871;29;20196;-63
2020/12/13 01:10:54;;;;;;;71.33;43.50;;;;;;;;;;4904985;29;20212;-63
2020/12/13 01:13:20;;;;;;;76.30;45.20;;;;;;;;;;4906128;29;20226;-64
2020/12/13 01:15:48;;;;;;;70.70;41.17;;;;;;;;;;4904786;29;20193;-63
2020/12/13 01:18:13;;;;;;;76.80;44.97;;;;;;;;;;4905437;29;20228;-63
2020/12/13 01:20:38;;;;;;;74.80;44.37;;;;;;;;;;4899798;29;20203;-64
2020/12/13 01:23:04;;;;;;;73.17;44.27;;;;;;;;;;4905685;29;20851;-63
2020/12/13 01:25:29;;;;;;;74.40;44.70;;;;;;;;;;4904925;29;20183;-63
2020/12/13 01:27:54;;;;;;;75.67;44.67;;;;;;;;;;4905706;29;20214;-63
2020/12/13 01:30:19;;;;;;;73.83;44.03;;;;;;;;;;4905737;29;20956;-63
2020/12/13 01:32:45;;;;;;;72.20;43.67;;;;;;;;;;4905942;29;20200;-63
2020/12/13 01:35:11;;;;;;;78.47;45.03;;;;;;;;;;4902279;29;20290;-63
2020/12/13 01:37:36;;;;;;;72.20;43.80;;;;;;;;;;4903973;29;20264;-63
2020/12/13 01:40:02;;;;;;;69.30;43.17;;;;;;;;;;4905443;29;20206;-63
2020/12/13 01:42:28;;;;;;;75.23;44.73;;;;;;;;;;4905702;29;20293;-63
2020/12/13 01:44:53;;;;;;;69.00;41.90;;;;;;;;;;4903027;29;20724;-64
2020/12/13 01:47:19;;;;;;;64.27;42.20;;;;;;;;;;4902881;29;20211;-63
2020/12/13 01:49:47;;;;;;;73.03;44.30;;;;;;;;;;4904876;29;20618;-63
2020/12/13 01:54:51;;;;;;;71.63;43.27;;;;;;;;;;4904803;29;20396;-63
2020/12/13 01:57:19;;;;;;;70.60;43.20;;;;;;;;;;4902777;29;20244;-63
2020/12/13 01:59:46;;;;;;;71.87;42.53;;;;;;;;;;4904583;29;20220;-63
2020/12/13 02:02:14;;;;;;;69.67;43.00;;;;;;;;;;4904584;29;20321;-63
2020/12/13 02:04:40;;;;;;;74.53;44.10;;;;;;;;;;4904700;29;20288;-63
2020/12/13 02:07:05;;;;;;;67.97;41.80;;;;;;;;;;4896971;29;20211;-63
2020/12/13 02:09:31;;;;;;;74.90;43.40;;;;;;;;;;4904673;29;20645;-63
2020/12/13 02:11:56;;;;;;;75.73;40.53;;;;;;;;;;4916166;29;20206;-63
2020/12/13 02:14:21;;;;;;;68.87;40.23;;;;;;;;;;4904215;29;20205;-63
2020/12/13 02:16:53;;;;;;;79.87;41.23;;;;;;;;;;4896818;29;20216;-63
2020/12/13 02:19:19;;;;;;;74.20;39.27;;;;;;;;;;4918351;29;20219;-64
2020/12/13 02:21:45;;;;;;;75.57;38.53;;;;;;;;;;4904540;29;20219;-63
2020/12/13 02:24:11;;;;;;;71.40;38.70;;;;;;;;;;4904231;29;20236;-63
2020/12/13 02:26:40;;;;;;;69.13;38.90;;;;;;;;;;4903245;29;20618;-63
2020/12/13 02:29:06;;;;;;;66.63;39.47;;;;;;;;;;4897737;29;20616;-63
2020/12/13 02:31:31;;;;;;;73.23;39.53;;;;;;;;;;4903903;29;20188;-63
2020/12/13 02:33:57;;;;;;;72.10;40.03;;;;;;;;;;4903824;29;20197;-63
2020/12/13 02:36:22;;;;;;;66.33;37.67;;;;;;;;;;4903069;29;20211;-63
2020/12/13 02:38:47;;;;;;;71.63;38.83;;;;;;;;;;4903615;29;20223;-63
2020/12/13 02:41:12;;;;;;;68.07;38.07;;;;;;;;;;4903878;29;20201;-63
2020/12/13 02:43:38;;;;;;;66.83;37.97;;;;;;;;;;4902857;29;20226;-63
2020/12/13 02:46:03;;;;;;;70.23;38.90;;;;;;;;;;4900957;29;20234;-63
2020/12/13 02:48:28;;;;;;;67.77;39.30;;;;;;;;;;4903921;29;20306;-63
2020/12/13 02:50:54;;;;;;;72.07;40.00;;;;;;;;;;4904112;29;20248;-63
2020/12/13 02:53:19;;;;;;;69.23;38.33;;;;;;;;;;4903636;29;20200;-63
2020/12/13 02:55:44;;;;;;;69.50;38.57;;;;;;;;;;4903779;29;20196;-63
2020/12/13 02:58:10;;;;;;;75.67;39.77;;;;;;;;;;4903370;29;20211;-63
2020/12/13 03:00:35;;;;;;;67.97;38.87;;;;;;;;;;4903871;29;20279;-63
2020/12/13 03:03:00;;;;;;;71.87;37.63;;;;;;;;;;4897976;29;20218;-63
2020/12/13 03:05:25;;;;;;;66.77;39.17;;;;;;;;;;4902332;29;20956;-63
2020/12/13 03:07:51;;;;;;;74.97;41.17;;;;;;;;;;4902980;29;20222;-63
2020/12/13 03:10:16;;;;;;;73.07;41.63;;;;;;;;;;4903377;29;20194;-63
2020/12/13 03:12:41;;;;;;;74.40;42.27;;;;;;;;;;4903921;29;20261;-63
2020/12/13 03:15:07;;;;;;;73.93;42.53;;;;;;;;;;4902368;29;20945;-63
2020/12/13 03:17:32;;;;;;;71.90;42.73;;;;;;;;;;4903060;29;20260;-63
2020/12/13 03:19:57;;;;;;;77.67;44.93;;;;;;;;;;4903835;29;20207;-63
2020/12/13 03:22:22;;;;;;;77.80;45.53;;;;;;;;;;4897541;29;20223;-63
2020/12/13 03:24:48;;;;;;;69.67;44.17;;;;;;;;;;4904166;29;20596;-63
2020/12/13 03:27:13;;;;;;;72.87;43.40;;;;;;;;;;4903126;29;20369;-64
2020/12/13 03:29:38;;;;;;;74.47;43.87;;;;;;;;;;4903872;29;20897;-63
2020/12/13 03:32:04;;;;;;;71.03;43.00;;;;;;;;;;4903094;29;20198;-63
2020/12/13 03:34:29;;;;;;;71.07;43.03;;;;;;;;;;4904446;29;20199;-63
2020/12/13 03:36:54;;;;;;;75.90;43.30;;;;;;;;;;4903209;29;20220;-63
2020/12/13 03:39:20;;;;;;;72.87;43.93;;;;;;;;;;4904720;29;20260;-64
2020/12/13 03:41:45;;;;;;;73.23;43.73;;;;;;;;;;4905427;29;20225;-63
2020/12/13 03:44:13;;;;;;;73.13;44.17;;;;;;;;;;4917267;29;20198;-63
2020/12/13 03:46:39;;;;;;;71.80;43.53;;;;;;;;;;4897159;29;20214;-63
2020/12/13 03:49:04;;;;;;;70.23;42.10;;;;;;;;;;4902515;29;20275;-63
2020/12/13 03:51:29;;;;;;;75.70;44.17;;;;;;;;;;4903643;29;20264;-63
2020/12/13 03:53:55;;;;;;;77.73;44.47;;;;;;;;;;4904611;29;20194;-63
2020/12/13 03:56:20;;;;;;;75.73;44.70;;;;;;;;;;4903673;29;20212;-63
2020/12/13 03:58:45;;;;;;;69.27;42.67;;;;;;;;;;4906910;29;20217;-63
2020/12/13 04:01:10;;;;;;;73.17;43.17;;;;;;;;;;4909618;29;20197;-63
2020/12/13 04:03:36;;;;;;;72.77;43.27;;;;;;;;;;4903523;29;20304;-63
2020/12/13 04:06:01;;;;;;;74.30;42.87;;;;;;;;;;4908701;29;20654;-62
2020/12/13 04:08:26;;;;;;;73.20;42.53;;;;;;;;;;4907116;29;20330;-63
2020/12/13 04:10:52;;;;;;;66.53;41.83;;;;;;;;;;4901221;29;20208;-63
2020/12/13 04:13:17;;;;;;;71.07;44.10;;;;;;;;;;4899709;29;20207;-63
2020/12/13 04:15:42;;;;;;;72.83;43.73;;;;;;;;;;4904604;29;20239;-63
2020/12/13 04:18:08;;;;;;;72.43;43.23;;;;;;;;;;4905938;29;20226;-64
2020/12/13 04:20:34;;;;;;;71.00;42.40;;;;;;;;;;4906492;29;20655;-64
2020/12/13 04:22:59;;;;;;;73.67;43.93;;;;;;;;;;4906698;29;20226;-63
2020/12/13 04:25:24;;;;;;;69.90;44.20;;;;;;;;;;4904794;29;20709;-62
2020/12/13 04:27:52;;;;;;;71.53;43.43;;;;;;;;;;4906174;29;20894;-63
2020/12/13 04:30:17;;;;;;;66.83;42.00;;;;;;;;;;4906892;29;20198;-63
2020/12/13 04:32:42;;;;;;;68.10;42.27;;;;;;;;;;4907096;29;20215;-64
2020/12/13 04:35:08;;;;;;;67.73;42.20;;;;;;;;;;4904475;29;20211;-63
2020/12/13 04:37:34;;;;;;;68.60;41.70;;;;;;;;;;4889929;29;20226;-63
2020/12/13 04:40:00;;;;;;;71.90;43.03;;;;;;;;;;4905559;29;20985;-63
2020/12/13 04:42:26;;;;;;;71.77;42.67;;;;;;;;;;4905405;29;20214;-63
2020/12/13 04:44:52;;;;;;;72.07;42.70;;;;;;;;;;4906119;29;20276;-63
2020/12/13 04:47:18;;;;;;;71.13;42.57;;;;;;;;;;4905914;29;20212;-63
2020/12/13 04:49:48;;;;;;;74.07;42.90;;;;;;;;;;4906566;29;20186;-62
2020/12/13 04:52:14;;;;;;;72.00;42.43;;;;;;;;;;4906040;29;20198;-63
2020/12/13 04:54:46;;;;;;;74.50;43.80;;;;;;;;;;4904780;29;20226;-63
2020/12/13 04:57:12;;;;;;;75.43;43.87;;;;;;;;;;4905845;29;20213;-63
2020/12/13 04:59:37;;;;;;;77.43;44.33;;;;;;;;;;4920299;29;20210;-63
2020/12/13 05:02:02;;;;;;;69.17;40.00;;;;;;;;;;4906204;29;20226;-61
2020/12/13 05:04:28;;;;;;;77.33;41.80;;;;;;;;;;4903826;29;20277;-64
2020/12/13 05:06:53;;;;;;;70.57;40.80;;;;;;;;;;4901788;29;20224;-63
2020/12/13 05:09:18;;;;;;;66.47;41.53;;;;;;;;;;4905469;29;20203;-64
2020/12/13 05:11:45;;;;;;;71.57;41.87;;;;;;;;;;4906331;29;20202;-63
2020/12/13 05:14:10;;;;;;;63.93;38.27;;;;;;;;;;4906114;29;20491;-63
2020/12/13 05:16:36;;;;;;;65.60;39.23;;;;;;;;;;4905502;29;20275;-63
2020/12/13 05:19:01;;;;;;;65.60;39.80;;;;;;;;;;4905750;29;20215;-63
2020/12/13 05:21:27;;;;;;;70.87;40.93;;;;;;;;;;4905519;29;20201;-62
2020/12/13 05:23:52;;;;;;;64.93;39.67;;;;;;;;;;4906164;29;20215;-64
2020/12/13 05:26:19;;;;;;;71.93;41.37;;;;;;;;;;4903861;29;20294;-62
2020/12/13 05:28:46;;;;;;;72.23;41.97;;;;;;;;;;4905428;29;20189;-60
2020/12/13 05:31:13;;;;;;;67.53;40.30;;;;;;;;;;4904500;29;20203;-64
2020/12/13 05:33:43;;;;;;;66.30;39.73;;;;;;;;;;4900240;29;20293;-62
2020/12/13 05:36:09;;;;;;;67.00;39.83;;;;;;;;;;4903585;29;20285;-62
2020/12/13 05:38:41;;;;;;;66.53;39.30;;;;;;;;;;4905315;29;21136;-63
2020/12/13 05:41:10;;;;;;;67.10;40.20;;;;;;;;;;4905568;29;20307;-64
2020/12/13 05:44:02;;;;;;;67.27;38.77;;;;;;;;;;4905137;29;20312;-63
2020/12/13 05:51:40;;;;;;;60.60;37.70;;;;;;;;;;4903215;29;20537;-63
2020/12/13 05:54:12;;;;;;;67.90;39.53;;;;;;;;;;4901884;29;20844;-63
2020/12/13 05:56:38;;;;;;;63.90;39.00;;;;;;;;;;4903798;29;20237;-62
2020/12/13 05:59:03;;;;;;;68.53;39.43;;;;;;;;;;4904851;29;20570;-64
2020/12/13 06:01:29;;;;;;;67.20;39.17;;;;;;;;;;4901398;29;20300;-62
2020/12/13 06:03:55;;;;;;;69.77;40.03;;;;;;;;;;4901118;29;20604;-61
2020/12/13 06:06:24;;;;;;;71.67;36.07;;;;;;;;;;4903397;29;20210;-62
2020/12/13 06:08:59;;;;;;;76.67;37.67;;;;;;;;;;4904415;29;20281;-59
2020/12/13 06:11:32;;;;;;;76.80;37.63;;;;;;;;;;4887992;29;20260;-62
2020/12/13 06:13:59;;;;;;;74.23;36.03;;;;;;;;;;4883083;29;20204;-62
2020/12/13 06:16:24;;;;;;;77.23;36.63;;;;;;;;;;4892095;29;20587;-62
2020/12/13 06:18:50;;;;;;;68.30;32.50;;;;;;;;;;4884345;29;20231;-61
2020/12/13 06:21:16;;;;;;;64.80;32.67;;;;;;;;;;4894090;29;20714;-62
2020/12/13 06:23:44;;;;;;;67.33;33.73;;;;;;;;;;4891661;29;21138;-62
2020/12/13 06:26:09;;;;;;;66.87;32.90;;;;;;;;;;4884080;29;20213;-62
2020/12/13 06:28:35;;;;;;;74.17;37.57;;;;;;;;;;4889544;29;20771;-62
2020/12/13 06:31:02;;;;;;;71.27;38.63;;;;;;;;;;4894713;29;20213;-65
2020/12/13 06:33:27;;;;;;;75.50;38.63;;;;;;;;;;4898017;29;20938;-60
2020/12/13 06:35:53;;;;;;;71.00;36.40;;;;;;;;;;4903298;29;20203;-59
2020/12/13 06:38:19;;;;;;;71.17;38.10;;;;;;;;;;4898303;29;20653;-62
2020/12/13 06:40:47;;;;;;;78.67;41.30;;;;;;;;;;4892080;29;20244;-63
2020/12/13 06:43:12;;;;;;;68.43;38.27;;;;;;;;;;4888254;29;20242;-60
2020/12/13 06:45:38;;;;;;;75.97;38.93;;;;;;;;;;4891460;29;20265;-60
2020/12/13 06:48:03;;;;;;;76.00;40.70;;;;;;;;;;4884966;29;20356;-59
2020/12/13 06:50:28;;;;;;;74.27;40.00;;;;;;;;;;4884187;29;21106;-59
2020/12/13 06:52:54;;;;;;;78.00;44.07;;;;;;;;;;4883477;29;20200;-59
2020/12/13 06:55:32;;;;;;;75.37;42.23;;;;;;;;;;4892542;29;20678;-59
2020/12/13 06:57:58;;;;;;;71.57;40.57;;;;;;;;;;4881743;29;20587;-59
2020/12/13 07:00:23;;;;;;;72.73;38.57;;;;;;;;;;4890181;29;20201;-61
2020/12/13 07:02:59;;;;;;;76.63;40.33;;;;;;;;;;4889220;29;20209;-60
2020/12/13 07:05:52;;;;;;;75.50;40.10;;;;;;;;;;4890534;29;20225;-60
2020/12/13 07:08:19;;;;;;;73.53;40.17;;;;;;;;;;4888076;29;20670;-61
2020/12/13 07:10:46;;;;;;;78.00;41.70;;;;;;;;;;4896617;29;20545;-59
2020/12/13 07:13:18;;;;;;;76.07;43.23;;;;;;;;;;4885599;29;20290;-60
2020/12/13 07:15:49;;;;;;;83.43;45.47;;;;;;;;;;4895898;29;20251;-60
2020/12/13 07:18:16;;;;;;;80.53;42.43;;;;;;;;;;4905515;29;20215;-60
2020/12/13 07:20:43;;;;;;;86.63;49.63;;;;;;;;;;4893116;29;20213;-60
2020/12/13 07:23:09;;;;;;;87.53;47.43;;;;;;;;;;4887302;29;20291;-60
2020/12/13 07:25:35;;;;;;;90.67;49.77;;;;;;;;;;4905488;29;20202;-59
2020/12/13 07:28:00;;;;;;;84.77;47.63;;;;;;;;;;4885555;29;20293;-59
2020/12/13 07:30:28;;;;;;;78.43;45.27;;;;;;;;;;4885657;29;20225;-59
2020/12/13 07:32:55;;;;;;;78.83;46.10;;;;;;;;;;4891916;29;20204;-60
2020/12/13 07:35:21;;;;;;;84.50;47.23;;;;;;;;;;4896129;29;20300;-60
2020/12/13 07:37:46;;;;;;;87.20;46.67;;;;;;;;;;4889906;29;20297;-59
2020/12/13 07:40:12;;;;;;;90.47;49.10;;;;;;;;;;4889204;29;20733;-60
2020/12/13 07:42:38;;;;;;;89.27;50.77;;;;;;;;;;4894648;29;20225;-60
2020/12/13 07:45:03;;;;;;;85.67;46.83;;;;;;;;;;4897033;29;20188;-60
2020/12/13 07:47:29;;;;;;;91.77;48.90;;;;;;;;;;4890337;29;20295;-60
2020/12/13 07:50:00;;;;;;;95.63;50.73;;;;;;;;;;4897489;29;20220;-60
2020/12/13 07:52:25;;;;;;;95.03;49.30;;;;;;;;;;4899023;29;20886;-59
2020/12/13 07:54:51;;;;;;;94.93;51.03;;;;;;;;;;4893477;29;20273;-60
2020/12/13 07:57:18;;;;;;;97.67;51.13;;;;;;;;;;4888462;29;20214;-60
2020/12/13 07:59:43;;;;;;;100.97;50.93;;;;;;;;;;4893887;29;20945;-60
2020/12/13 08:02:10;;;;;;;101.50;50.70;;;;;;;;;;4890280;29;20208;-59
2020/12/13 08:04:37;;;;;;;101.43;51.00;;;;;;;;;;4889895;29;20218;-60
2020/12/13 08:07:03;;;;;;;104.13;52.50;;;;;;;;;;4890230;29;20374;-59
2020/12/13 08:09:29;;;;;;;106.20;54.87;;;;;;;;;;4891943;29;20228;-60
2020/12/13 08:11:54;;;;;;;104.63;55.07;;;;;;;;;;4893159;29;20190;-59
2020/12/13 08:14:21;;;;;;;108.47;54.10;;;;;;;;;;4887075;29;20194;-59
2020/12/13 08:16:48;;;;;;;106.27;52.63;;;;;;;;;;4887663;29;20219;-59
2020/12/13 08:19:16;;;;;;;121.47;56.23;;;;;;;;;;4890580;29;20252;-59
2020/12/13 08:21:51;;;;;;;110.33;56.07;;;;;;;;;;4889349;29;20198;-59
2020/12/13 08:24:17;;;;;;;107.63;51.50;;;;;;;;;;4888862;29;20279;-59
2020/12/13 08:26:43;;;;;;;107.17;53.93;;;;;;;;;;4887423;29;20880;-59
2020/12/13 08:29:08;;;;;;;120.73;57.27;;;;;;;;;;4894773;29;20191;-59
2020/12/13 08:31:34;;;;;;;116.00;58.00;;;;;;;;;;4887580;29;20201;-60
2020/12/13 08:34:00;;;;;;;117.77;56.07;;;;;;;;;;4888172;29;20294;-60
2020/12/13 08:36:26;;;;;;;122.07;58.73;;;;;;;;;;4887677;29;20302;-60
2020/12/13 08:39:03;;;;;;;112.53;55.73;;;;;;;;;;4887187;29;20197;-60
2020/12/13 08:41:28;;;;;;;126.47;58.67;;;;;;;;;;4894213;29;20199;-60
2020/12/13 08:43:54;;;;;;;121.37;58.60;;;;;;;;;;4899951;29;20215;-60
2020/12/13 08:46:34;;;;;;;117.80;56.47;;;;;;;;;;4892083;29;20220;-60
2020/12/13 08:49:00;;;;;;;114.30;54.53;;;;;;;;;;4890481;29;20227;-60
2020/12/13 08:51:26;;;;;;;128.77;59.23;;;;;;;;;;4894299;29;20252;-60
2020/12/13 08:53:55;;;;;;;130.03;60.53;;;;;;;;;;4887669;29;20198;-60
2020/12/13 08:56:29;;;;;;;115.30;57.67;;;;;;;;;;4888933;29;20279;-60
2020/12/13 08:59:03;;;;;;;114.20;56.77;;;;;;;;;;4901389;29;20604;-60
2020/12/13 09:01:33;;;;;;;118.27;55.97;;;;;;;;;;4886373;29;20203;-61
2020/12/13 09:03:58;;;;;;;123.40;61.30;;;;;;;;;;4900186;29;20220;-60
2020/12/13 09:06:24;;;;;;;127.53;62.27;;;;;;;;;;4888386;29;20234;-60
2020/12/13 09:08:49;;;;;;;129.27;61.73;;;;;;;;;;4888933;29;20260;-60
2020/12/13 09:11:27;;;;;;;127.80;61.43;;;;;;;;;;4886979;29;20195;-59
2020/12/13 09:13:53;;;;;;;120.93;61.93;;;;;;;;;;4887044;29;20220;-60
2020/12/13 09:16:25;;;;;;;128.03;62.20;;;;;;;;;;4885397;29;20356;-60
2020/12/13 09:19:00;;;;;;;130.53;61.93;;;;;;;;;;4886840;29;20339;-60
2020/12/13 09:21:25;;;;;;;130.87;60.20;;;;;;;;;;4893273;29;20301;-60
2020/12/13 09:23:56;;;;;;;130.40;60.17;;;;;;;;;;4892987;29;20225;-60
2020/12/13 09:26:22;;;;;;;123.00;59.67;;;;;;;;;;4889003;29;20299;-60
2020/12/13 09:28:48;;;;;;;126.37;60.90;;;;;;;;;;4897272;29;20187;-60
2020/12/13 09:31:13;;;;;;;118.73;59.23;;;;;;;;;;4888069;29;20283;-60
2020/12/13 09:33:38;;;;;;;123.63;60.67;;;;;;;;;;4894223;29;20188;-60
2020/12/13 09:36:03;;;;;;;119.57;59.67;;;;;;;;;;4885778;29;20244;-60
2020/12/13 09:38:29;;;;;;;121.90;59.73;;;;;;;;;;4887279;29;20222;-59
2020/12/13 09:40:54;;;;;;;126.23;59.27;;;;;;;;;;4886075;29;20609;-60
2020/12/13 09:43:19;;;;;;;118.80;60.63;;;;;;;;;;4892715;29;20223;-60
2020/12/13 09:45:45;;;;;;;117.83;60.80;;;;;;;;;;4890667;29;20198;-60
2020/12/13 09:48:10;;;;;;;121.87;60.23;;;;;;;;;;4891195;29;20588;-60
2020/12/13 09:50:35;;;;;;;119.43;59.03;;;;;;;;;;4892922;29;20188;-60
2020/12/13 09:53:00;;;;;;;113.60;59.00;;;;;;;;;;4894046;29;20294;-60
2020/12/13 09:55:26;;;;;;;119.07;59.67;;;;;;;;;;4889029;29;20206;-60
2020/12/13 09:57:51;;;;;;;112.40;57.77;;;;;;;;;;4889573;29;20275;-59
2020/12/13 10:00:16;;;;;;;113.53;56.70;;;;;;;;;;4888751;29;20664;-60
2020/12/13 10:02:43;;;;;;;116.27;56.60;;;;;;;;;;4890728;29;20331;-58
2020/12/13 10:05:19;;;;;;;111.10;56.70;;;;;;;;;;4891691;29;20189;-60
2020/12/13 10:10:10;;;;;;;119.80;64.00;;;;;;;;;;4895023;29;20184;-72
2020/12/13 10:12:35;;;;;;;118.77;63.27;;;;;;;;;;4891600;29;20553;-72
2020/12/13 10:15:00;;;;;;;121.03;62.87;;;;;;;;;;4885159;29;20185;-71
2020/12/13 10:17:26;;;;;;;126.93;64.73;;;;;;;;;;4889854;29;20214;-73
2020/12/13 10:19:51;;;;;;;128.90;63.33;;;;;;;;;;4897915;29;20205;-72
2020/12/13 10:22:17;;;;;;;118.37;57.80;;;;;;;;;;4891787;29;20209;-60
2020/12/13 10:24:42;;;;;;;110.73;56.70;;;;;;;;;;4886721;29;20313;-61
2020/12/13 10:27:08;;;;;;;105.80;54.20;;;;;;;;;;4885834;29;20218;-60
2020/12/13 10:29:33;;;;;;;98.27;49.97;;;;;;;;;;4891359;29;20188;-60
2020/12/13 10:31:58;;;;;;;98.77;50.23;;;;;;;;;;4885043;29;20200;-60
2020/12/13 10:34:24;;;;;;;108.37;55.33;;;;;;;;;;4893405;29;20278;-59
2020/12/13 10:36:50;;;;;;;103.25;54.80;;;;;;;;;;4884590;29;20208;-59
2020/12/13 10:39:19;;;;;;;101.07;54.23;;;;;;;;;;4885061;29;20203;-59
2020/12/13 10:41:45;;;;;;;103.45;55.45;;;;;;;;;;4887100;29;20196;-58
2020/12/13 10:44:10;;;;;;;107.82;55.85;;;;;;;;;;4885370;29;20185;-60
2020/12/13 10:46:38;;;;;;;110.93;59.08;;;;;;;;;;4888175;29;20211;-59
2020/12/13 10:49:03;;;;;;;104.68;52.45;;;;;;;;;;4893980;29;20236;-59
2020/12/13 10:51:28;;;;;;;92.63;50.80;;;;;;;;;;4885342;29;20256;-59
2020/12/13 10:53:53;;;;;;;104.50;54.58;;;;;;;;;;4891941;29;20916;-59
2020/12/13 10:56:19;;;;;;;97.90;57.47;;;;;;;;;;4884460;29;20633;-69
2020/12/13 10:58:45;;;;;;;112.57;60.50;;;;;;;;;;4886660;29;20231;-68
2020/12/13 11:01:11;;;;;;;113.50;60.00;;;;;;;;;;4886220;29;20189;-69
2020/12/13 11:03:37;;;;;;;110.80;59.57;;;;;;;;;;4886813;29;20222;-70
2020/12/13 11:06:02;;;;;;;100.77;56.47;;;;;;;;;;4885844;29;20692;-71
2020/12/13 11:08:28;;;;;;;106.13;58.90;;;;;;;;;;4898210;29;20265;-69
2020/12/13 11:10:53;;;;;;;115.77;59.70;;;;;;;;;;4890348;29;20272;-70
2020/12/13 11:13:18;;;;;;;115.43;60.07;;;;;;;;;;4897117;29;20644;-69
2020/12/13 11:15:44;;;;;;;112.90;60.93;;;;;;;;;;4889538;29;20236;-70
2020/12/13 11:18:09;;;;;;;110.87;59.70;;;;;;;;;;4894485;29;20381;-70
2020/12/13 11:20:35;;;;;;;114.33;61.43;;;;;;;;;;4890680;29;20193;-69
2020/12/13 11:23:00;;;;;;;111.73;58.27;;;;;;;;;;4894844;29;20215;-69
2020/12/13 11:25:25;;;;;;;97.30;50.37;;;;;;;;;;4890249;29;20961;-59
2020/12/13 11:27:51;;;;;;;102.17;48.40;;;;;;;;;;4900945;29;20215;-59
2020/12/13 11:30:16;;;;;;;84.20;42.33;;;;;;;;;;4889057;29;20190;-59
2020/12/13 11:32:44;;;;;;;85.93;47.83;;;;;;;;;;4888236;29;20889;-59
2020/12/13 11:35:09;;;;;;;102.30;52.47;;;;;;;;;;4888280;29;20595;-59
2020/12/13 11:37:35;;;;;;;102.57;52.63;;;;;;;;;;4888207;29;20222;-59
2020/12/13 11:40:00;;;;;;;96.93;53.95;;;;;;;;;;4888588;29;20202;-60
2020/12/13 11:42:25;;;;;;;95.88;53.40;;;;;;;;;;4895154;29;20894;-59
2020/12/13 11:44:51;;;;;;;93.13;51.87;;;;;;;;;;4894753;29;20200;-59
2020/12/13 11:47:16;;;;;;;88.38;49.85;;;;;;;;;;4888391;29;20216;-59
2020/12/13 11:49:41;;;;;;;88.72;49.88;;;;;;;;;;4888489;29;20229;-58
2020/12/13 11:52:07;;;;;;;85.13;49.55;;;;;;;;;;4887856;29;20734;-59
2020/12/13 11:54:32;;;;;;;88.22;50.17;;;;;;;;;;4894577;29;20200;-59
2020/12/13 11:56:57;;;;;;;92.30;50.45;;;;;;;;;;4889158;29;20220;-59
2020/12/13 11:59:23;;;;;;;89.28;50.60;;;;;;;;;;4888114;29;20198;-60
2020/12/13 12:01:48;;;;;;;86.68;49.53;;;;;;;;;;4893955;29;20204;-59
2020/12/13 12:04:14;;;;;;;79.60;46.40;;;;;;;;;;4888046;29;20196;-59
2020/12/13 12:06:42;;;;;;;81.05;47.08;;;;;;;;;;4893544;29;20216;-59
2020/12/13 12:09:08;;;;;;;75.15;46.03;;;;;;;;;;4901069;29;20194;-59
2020/12/13 12:11:33;;;;;;;76.50;47.00;;;;;;;;;;4887548;29;20193;-59
2020/12/13 12:13:58;;;;;;;74.05;46.03;;;;;;;;;;4889538;29;20769;-59
2020/12/13 12:16:25;;;;;;;79.65;46.67;;;;;;;;;;4902198;29;20223;-58
2020/12/13 12:18:51;;;;;;;76.00;45.60;;;;;;;;;;4886437;29;20206;-59
2020/12/13 12:21:18;;;;;;;75.80;46.50;;;;;;;;;;4902726;29;20216;-59
2020/12/13 12:23:43;;;;;;;73.97;46.17;;;;;;;;;;4891956;29;20228;-59
2020/12/13 12:26:08;;;;;;;72.20;44.97;;;;;;;;;;4893330;29;20592;-59
2020/12/13 12:28:34;;;;;;;66.43;42.90;;;;;;;;;;4887069;29;20199;-58
2020/12/13 12:30:59;;;;;;;64.32;43.47;;;;;;;;;;4888753;29;20189;-58
2020/12/13 12:33:24;;;;;;;68.22;43.17;;;;;;;;;;4898634;29;20197;-58
2020/12/13 12:35:50;;;;;;;63.30;43.88;;;;;;;;;;4892947;29;20191;-58
2020/12/13 12:38:15;;;;;;;66.57;43.72;;;;;;;;;;4894025;29;20224;-58
2020/12/13 12:40:40;;;;;;;69.03;43.15;;;;;;;;;;4891166;29;20276;-60
2020/12/13 12:43:06;;;;;;;66.03;42.67;;;;;;;;;;4885462;29;21040;-59
2020/12/13 12:45:31;;;;;;;62.80;41.63;;;;;;;;;;4894680;29;20180;-59
2020/12/13 12:47:56;;;;;;;61.33;39.77;;;;;;;;;;4894297;29;20572;-61
2020/12/13 12:50:21;;;;;;;61.63;39.90;;;;;;;;;;4911707;29;20206;-61
2020/12/13 12:52:47;;;;;;;60.37;40.43;;;;;;;;;;4893854;29;20274;-61
2020/12/13 12:55:12;;;;;;;60.47;40.80;;;;;;;;;;4893911;29;20201;-58
2020/12/13 12:57:37;;;;;;;62.27;41.00;;;;;;;;;;4888819;29;20255;-61
2020/12/13 13:02:51;;;;;;;63.15;40.35;;;;;;;;;;4883676;29;20219;-61
2020/12/13 13:05:25;;;;;;;64.53;42.25;;;;;;;;;;4888248;29;20188;-61
2020/12/13 13:07:50;;;;;;;62.78;42.30;;;;;;;;;;4891324;29;20293;-61
2020/12/13 13:10:19;;;;;;;64.10;42.85;;;;;;;;;;4888682;29;20681;-61
2020/12/13 13:12:45;;;;;;;62.35;42.70;;;;;;;;;;4893540;29;20200;-61
2020/12/13 13:15:27;;;;;;;66.13;42.03;;;;;;;;;;4896604;29;20207;-61
2020/12/13 13:17:54;;;;;;;62.30;42.28;;;;;;;;;;4882703;29;20217;-61
2020/12/13 13:20:20;;;;;;;59.38;42.35;;;;;;;;;;4886727;29;20687;-61
2020/12/13 13:22:45;;;;;;;61.78;40.60;;;;;;;;;;4893708;29;20223;-61
2020/12/13 13:25:10;;;;;;;65.43;41.08;;;;;;;;;;4896692;29;20193;-61
2020/12/13 13:27:36;;;;;;;57.10;39.50;;;;;;;;;;4892514;29;20216;-61
2020/12/13 13:30:02;;;;;;;59.20;40.47;;;;;;;;;;4898248;29;20181;-64
2020/12/13 13:32:27;;;;;;;57.55;40.45;;;;;;;;;;4890494;29;20219;-61
2020/12/13 13:34:53;;;;;;;62.85;41.53;;;;;;;;;;4886892;29;21053;-61
2020/12/13 13:37:18;;;;;;;60.63;39.58;;;;;;;;;;4886320;29;20327;-61
2020/12/13 13:39:43;;;;;;;56.60;38.03;;;;;;;;;;4898501;29;20208;-61
2020/12/13 13:42:12;;;;;;;55.35;39.45;;;;;;;;;;4895992;29;20291;-61
2020/12/13 13:44:44;;;;;;;55.28;37.60;;;;;;;;;;4895155;29;20630;-61
2020/12/13 13:47:25;;;;;;;57.75;37.20;;;;;;;;;;4885626;29;20217;-61
2020/12/13 13:50:00;;;;;;;56.53;39.38;;;;;;;;;;4900496;29;20188;-61
2020/12/13 13:52:26;;;;;;;58.55;40.13;;;;;;;;;;4887151;29;20199;-61
2020/12/13 13:54:53;;;;;;;56.70;38.25;;;;;;;;;;4894430;29;20208;-61
2020/12/13 13:57:21;;;;;;;61.72;42.40;;;;;;;;;;4895366;29;20209;-61
2020/12/13 13:59:46;;;;;;;60.22;39.35;;;;;;;;;;4898321;29;20193;-61
2020/12/13 14:02:12;;;;;;;59.30;40.05;;;;;;;;;;4890972;29;20251;-61
2020/12/13 14:04:37;;;;;;;55.80;38.25;;;;;;;;;;4897274;29;20191;-61
2020/12/13 14:09:29;;;;;;;60.08;40.58;;;;;;;;;;4901694;29;20191;-61
2020/12/13 14:11:54;;;;;;;52.58;39.20;;;;;;;;;;4886328;29;20193;-61
2020/12/13 14:14:20;;;;;;;55.83;40.53;;;;;;;;;;4889505;29;20192;-61
2020/12/13 14:16:45;;;;;;;56.15;40.97;;;;;;;;;;4889992;29;20211;-61
2020/12/13 14:19:12;;;;;;;54.17;37.42;;;;;;;;;;4891218;29;20209;-61
2020/12/13 14:21:37;;;;;;;55.10;37.53;;;;;;;;;;4887462;29;20179;-61
2020/12/13 14:24:02;;;;;;;59.10;38.45;;;;;;;;;;4893865;29;20263;-59